createdAt,value
2017-06-28T00:02:01.667Z,31.80
2017-06-28T00:04:30.566Z,31.80
2017-06-28T00:06:59.359Z,31.70
2017-06-28T00:09:28.252Z,31.70
2017-06-28T00:11:56.555Z,31.70
2017-06-28T00:14:25.207Z,31.60
2017-06-28T00:16:54.000Z,31.60
2017-06-28T00:19:22.892Z,31.60
2017-06-28T00:21:51.779Z,31.60
2017-06-28T00:24:20.683Z,31.60
2017-06-28T00:26:49.776Z,31.70
2017-06-28T00:29:18.627Z,31.70
2017-06-28T00:31:48.078Z,31.70
2017-06-28T00:34:16.906Z,31.60
2017-06-28T00:36:45.859Z,31.60
2017-06-28T00:39:14.855Z,31.60
2017-06-28T00:41:44.055Z,31.60
2017-06-28T00:44:12.843Z,31.60
2017-06-28T00:46:41.691Z,31.60
2017-06-28T00:49:11.332Z,31.60
2017-06-28T00:51:40.135Z,31.60
2017-06-28T00:54:09.023Z,31.60
2017-06-28T00:56:38.020Z,31.50
2017-06-28T00:59:06.911Z,31.50
2017-06-28T01:01:35.803Z,31.50
2017-06-28T01:04:04.799Z,31.50
2017-06-28T01:06:33.703Z,31.40
2017-06-28T01:09:02.347Z,31.50
2017-06-28T01:11:31.255Z,31.50
2017-06-28T01:13:59.995Z,31.50
2017-06-28T01:16:28.131Z,31.50
2017-06-28T01:18:56.891Z,31.40
2017-06-28T01:21:25.443Z,31.40
2017-06-28T01:23:54.288Z,31.40
2017-06-28T01:26:23.178Z,31.40
2017-06-28T01:28:51.979Z,31.40
2017-06-28T01:31:20.165Z,31.30
2017-06-28T01:33:49.044Z,31.30
2017-06-28T01:36:17.723Z,31.30
2017-06-28T01:38:46.582Z,31.30
2017-06-28T01:41:16.172Z,31.30
2017-06-28T01:43:44.918Z,31.30
2017-06-28T01:46:13.767Z,31.30
2017-06-28T01:48:43.411Z,31.20
2017-06-28T01:51:12.106Z,31.20
2017-06-28T01:53:40.329Z,31.20
2017-06-28T01:56:10.099Z,31.10
2017-06-28T01:58:38.991Z,31.10
2017-06-28T02:01:07.883Z,31.10
2017-06-28T02:03:36.938Z,31.00
2017-06-28T02:06:05.127Z,31.00
2017-06-28T02:08:33.636Z,30.90
2017-06-28T02:11:02.726Z,31.00
2017-06-28T02:13:31.631Z,30.90
2017-06-28T02:16:00.579Z,30.90
2017-06-28T02:18:30.123Z,30.90
2017-06-28T02:20:58.907Z,30.90
2017-06-28T02:23:27.762Z,30.90
2017-06-28T02:25:56.255Z,30.90
2017-06-28T02:28:24.915Z,30.70
2017-06-28T02:30:53.563Z,30.60
2017-06-28T02:33:22.456Z,30.60
2017-06-28T02:35:51.346Z,30.60
2017-06-28T02:38:20.296Z,30.80
2017-06-28T02:40:48.607Z,30.80
2017-06-28T02:43:16.836Z,30.80
2017-06-28T02:45:45.786Z,31.00
2017-06-28T02:48:15.494Z,31.00
2017-06-28T02:50:44.280Z,31.10
2017-06-28T02:53:13.079Z,31.10
2017-06-28T02:55:42.076Z,31.20
2017-06-28T02:58:10.263Z,31.20
2017-06-28T03:00:38.872Z,31.30
2017-06-28T03:03:07.614Z,31.70
2017-06-28T03:05:36.312Z,31.90
2017-06-28T03:08:05.203Z,32.00
2017-06-28T03:10:34.255Z,32.10
2017-06-28T03:13:03.699Z,32.30
2017-06-28T03:15:32.495Z,32.30
2017-06-28T03:18:01.592Z,32.40
2017-06-28T03:20:30.279Z,32.50
2017-06-28T03:22:58.863Z,32.50
2017-06-28T03:25:27.794Z,32.70
2017-06-28T03:27:56.891Z,32.60
2017-06-28T03:30:25.631Z,32.40
2017-06-28T03:32:53.963Z,32.50
2017-06-28T03:35:23.422Z,32.90
2017-06-28T03:37:52.319Z,32.90
2017-06-28T03:40:21.311Z,32.90
2017-06-28T03:42:50.203Z,33.00
2017-06-28T03:45:18.867Z,33.20
2017-06-28T03:47:47.667Z,33.40
2017-06-28T03:50:15.848Z,33.50
2017-06-28T03:52:44.755Z,33.50
2017-06-28T03:55:13.459Z,33.60
2017-06-28T03:57:41.642Z,33.70
2017-06-28T04:00:10.509Z,33.90
2017-06-28T04:02:39.275Z,33.90
2017-06-28T04:05:07.928Z,34.10
2017-06-28T04:07:36.147Z,34.30
2017-06-28T04:10:04.443Z,34.30
2017-06-28T04:12:32.610Z,34.30
2017-06-28T04:15:01.504Z,34.40
2017-06-28T04:17:30.211Z,34.60
2017-06-28T04:19:58.914Z,34.80
2017-06-28T04:22:27.663Z,35.00
2017-06-28T04:24:56.514Z,35.10
2017-06-28T04:27:26.052Z,35.40
2017-06-28T04:29:54.947Z,35.40
2017-06-28T04:32:23.840Z,35.50
2017-06-28T04:34:52.851Z,35.70
2017-06-28T04:37:21.731Z,35.70
2017-06-28T04:39:50.726Z,35.80
2017-06-28T04:42:19.620Z,36.10
2017-06-28T04:44:48.259Z,36.50
2017-06-28T04:47:18.019Z,37.30
2017-06-28T04:49:46.910Z,37.30
2017-06-28T04:52:15.675Z,37.60
2017-06-28T04:54:44.407Z,37.70
2017-06-28T04:57:12.625Z,39.20
2017-06-28T04:59:42.210Z,40.40
2017-06-28T05:02:11.164Z,40.40
2017-06-28T05:04:39.948Z,41.60
2017-06-28T05:07:08.747Z,42.60
2017-06-28T05:09:37.739Z,43.80
2017-06-28T05:12:06.632Z,42.50
2017-06-28T05:14:35.289Z,42.40
2017-06-28T05:17:03.571Z,42.00
2017-06-28T05:19:32.387Z,41.80
2017-06-28T05:22:00.607Z,41.30
2017-06-28T05:24:29.542Z,41.10
2017-06-28T05:26:57.771Z,41.40
2017-06-28T05:29:26.635Z,42.30
2017-06-28T05:31:55.491Z,43.50
2017-06-28T05:34:24.135Z,44.30
2017-06-28T05:36:52.879Z,44.10
2017-06-28T05:39:21.211Z,44.50
2017-06-28T05:41:49.795Z,45.00
2017-06-28T05:44:18.545Z,44.40
2017-06-28T05:46:47.630Z,44.10
2017-06-28T05:49:17.036Z,44.90
2017-06-28T05:51:45.827Z,45.00
2017-06-28T05:54:14.128Z,44.20
2017-06-28T05:56:42.605Z,42.60
2017-06-28T05:59:10.863Z,41.90
2017-06-28T06:01:39.819Z,41.30
2017-06-28T06:04:09.306Z,41.40
2017-06-28T06:06:38.047Z,41.30
2017-06-28T06:09:07.051Z,41.40
2017-06-28T06:11:35.945Z,41.30
2017-06-28T06:14:04.951Z,42.10
2017-06-28T06:16:33.647Z,42.70
2017-06-28T06:19:03.103Z,42.60
2017-06-28T06:21:32.024Z,43.20
2017-06-28T06:24:00.370Z,44.00
2017-06-28T06:26:28.983Z,43.90
2017-06-28T06:28:57.888Z,45.10
2017-06-28T06:31:26.238Z,45.40
2017-06-28T06:33:55.056Z,46.70
2017-06-28T06:36:23.728Z,45.80
2017-06-28T06:38:51.971Z,45.80
2017-06-28T06:41:21.523Z,44.40
2017-06-28T06:43:50.315Z,44.30
2017-06-28T06:46:18.655Z,43.90
2017-06-28T06:48:48.507Z,42.90
2017-06-28T06:51:17.399Z,42.80
2017-06-28T06:53:46.399Z,42.40
2017-06-28T06:56:15.343Z,42.00
2017-06-28T06:58:44.887Z,42.20
2017-06-28T07:01:13.780Z,42.20
2017-06-28T07:03:42.580Z,42.00
2017-06-28T07:06:11.467Z,41.90
2017-06-28T07:08:39.739Z,42.00
2017-06-28T07:11:08.423Z,41.90
2017-06-28T07:13:37.225Z,42.50
2017-06-28T07:16:05.983Z,42.70
2017-06-28T07:18:34.804Z,43.20
2017-06-28T07:21:03.706Z,44.00
2017-06-28T07:23:32.421Z,44.80
2017-06-28T07:26:01.063Z,45.40
2017-06-28T07:28:29.859Z,45.90
2017-06-28T07:30:58.206Z,46.40
2017-06-28T07:33:26.868Z,45.00
2017-06-28T07:35:56.635Z,44.80
2017-06-28T07:38:24.980Z,44.70
2017-06-28T07:40:53.591Z,45.40
2017-06-28T07:43:21.794Z,45.00
2017-06-28T07:45:50.092Z,44.50
2017-06-28T07:48:18.844Z,44.10
2017-06-28T07:50:47.588Z,42.90
2017-06-28T07:53:17.284Z,41.50
2017-06-28T07:55:46.024Z,41.40
2017-06-28T07:58:14.280Z,41.40
2017-06-28T08:00:43.044Z,41.00
2017-06-28T08:03:12.403Z,40.90
2017-06-28T08:05:41.027Z,40.90
2017-06-28T08:08:09.974Z,40.70
2017-06-28T08:10:38.667Z,40.60
2017-06-28T08:13:07.459Z,40.30
2017-06-28T08:15:36.451Z,40.50
2017-06-28T08:18:05.399Z,40.40
2017-06-28T08:20:34.839Z,40.50
2017-06-28T08:23:03.738Z,40.50
2017-06-28T08:25:32.530Z,40.50
2017-06-28T08:28:01.423Z,40.70
2017-06-28T08:30:30.414Z,40.60
2017-06-28T08:32:59.366Z,40.80
2017-06-28T08:35:28.911Z,40.70
2017-06-28T08:37:58.008Z,40.70
2017-06-28T08:40:26.783Z,40.70
2017-06-28T08:42:56.223Z,40.60
2017-06-28T08:45:25.188Z,40.70
2017-06-28T08:47:53.988Z,40.50
2017-06-28T08:50:22.792Z,40.50
2017-06-28T08:52:51.469Z,40.40
2017-06-28T08:55:20.176Z,40.40
2017-06-28T08:57:48.367Z,40.40
2017-06-28T09:00:17.015Z,40.40
2017-06-28T09:02:45.692Z,40.40
2017-06-28T09:05:13.895Z,40.50
2017-06-28T09:07:42.531Z,40.30
2017-06-28T09:10:12.223Z,40.50
2017-06-28T09:12:40.750Z,40.40
2017-06-28T09:15:09.619Z,40.40
2017-06-28T09:17:38.214Z,40.50
2017-06-28T09:20:07.075Z,40.50
2017-06-28T09:22:35.711Z,40.50
2017-06-28T09:25:04.420Z,40.50
2017-06-28T09:27:33.167Z,40.40
2017-06-28T09:30:02.080Z,40.40
2017-06-28T09:32:30.327Z,40.50
2017-06-28T09:34:59.959Z,40.50
2017-06-28T09:37:29.060Z,40.50
2017-06-28T09:39:57.952Z,40.40
2017-06-28T09:42:26.107Z,40.40
2017-06-28T09:44:54.797Z,40.40
2017-06-28T09:47:23.660Z,40.40
2017-06-28T09:49:52.603Z,40.40
2017-06-28T09:52:21.755Z,40.60
2017-06-28T09:54:51.084Z,40.50
2017-06-28T09:57:19.884Z,40.50
2017-06-28T09:59:48.947Z,40.60
2017-06-28T10:02:18.271Z,40.70
2017-06-28T10:04:46.975Z,40.70
2017-06-28T10:07:15.283Z,40.70
2017-06-28T10:09:44.023Z,40.60
2017-06-28T10:12:12.187Z,40.70
2017-06-28T10:14:41.811Z,40.50
2017-06-28T10:17:10.610Z,40.40
2017-06-28T10:19:39.607Z,40.40
2017-06-28T10:22:07.837Z,40.30
2017-06-28T10:24:36.352Z,40.20
2017-06-28T10:27:05.059Z,40.20
2017-06-28T10:29:33.331Z,40.20
2017-06-28T10:32:02.007Z,40.10
2017-06-28T10:34:30.911Z,40.10
2017-06-28T10:36:59.804Z,40.10
2017-06-28T10:39:28.920Z,40.00
2017-06-28T10:41:57.152Z,39.90
2017-06-28T10:44:26.736Z,40.10
2017-06-28T10:46:55.581Z,40.00
2017-06-28T10:49:24.141Z,40.10
2017-06-28T10:51:52.826Z,40.30
2017-06-28T10:54:20.974Z,40.30
2017-06-28T10:56:49.530Z,40.20
2017-06-28T10:59:17.782Z,40.20
2017-06-28T11:01:46.599Z,40.20
2017-06-28T11:04:15.142Z,40.10
2017-06-28T11:06:43.932Z,40.00
2017-06-28T11:09:12.613Z,39.90
2017-06-28T11:11:42.017Z,39.80
2017-06-28T11:14:11.505Z,39.60
2017-06-28T11:16:41.045Z,39.60
2017-06-28T11:19:09.849Z,39.50
2017-06-28T11:21:38.526Z,39.50
2017-06-28T11:24:07.193Z,39.40
2017-06-28T11:26:36.745Z,39.40
2017-06-28T11:29:05.477Z,39.40
2017-06-28T11:31:35.178Z,39.30
2017-06-28T11:34:03.933Z,39.30
2017-06-28T11:36:32.217Z,39.20
2017-06-28T11:39:00.357Z,39.20
2017-06-28T11:41:29.181Z,39.20
2017-06-28T11:43:58.040Z,39.30
2017-06-28T11:46:26.713Z,39.00
2017-06-28T11:48:55.414Z,39.10
2017-06-28T11:51:24.368Z,39.20
2017-06-28T11:53:52.490Z,39.00
2017-06-28T11:56:21.093Z,39.00
2017-06-28T11:58:49.354Z,39.00
2017-06-28T12:01:17.517Z,39.00
2017-06-28T12:03:46.266Z,38.90
2017-06-28T12:06:15.109Z,38.80
2017-06-28T12:08:43.917Z,38.70
2017-06-28T12:11:12.561Z,38.60
2017-06-28T12:13:42.245Z,38.50
2017-06-28T12:16:11.086Z,38.50
2017-06-28T12:18:39.582Z,38.50
2017-06-28T12:21:08.897Z,38.60
2017-06-28T12:23:37.473Z,38.60
2017-06-28T12:26:06.218Z,38.60
2017-06-28T12:28:35.109Z,38.50
2017-06-28T12:31:04.457Z,38.30
2017-06-28T12:33:33.098Z,38.30
2017-06-28T12:36:02.445Z,38.20
2017-06-28T12:38:31.193Z,38.20
2017-06-28T12:40:59.856Z,38.20
2017-06-28T12:43:28.798Z,38.00
2017-06-28T12:45:57.505Z,38.00
2017-06-28T12:48:26.094Z,37.90
2017-06-28T12:50:54.941Z,37.90
2017-06-28T12:53:23.637Z,37.80
2017-06-28T12:55:52.589Z,37.80
2017-06-28T12:58:21.629Z,37.80
2017-06-28T13:00:50.429Z,37.80
2017-06-28T13:03:19.045Z,37.80
2017-06-28T13:05:47.825Z,37.80
2017-06-28T13:08:16.568Z,37.90
2017-06-28T13:10:45.265Z,37.70
2017-06-28T13:13:14.221Z,37.70
2017-06-28T13:15:43.062Z,37.60
2017-06-28T13:18:11.522Z,37.40
2017-06-28T13:20:40.458Z,37.40
2017-06-28T13:23:08.898Z,37.30
2017-06-28T13:25:37.658Z,37.30
2017-06-28T13:28:06.285Z,37.40
2017-06-28T13:30:34.855Z,37.30
2017-06-28T13:33:03.653Z,37.20
2017-06-28T13:35:32.537Z,37.20
2017-06-28T13:38:01.298Z,37.20
2017-06-28T13:40:30.055Z,37.30
2017-06-28T13:42:58.277Z,37.30
2017-06-28T13:45:27.638Z,37.20
2017-06-28T13:47:56.485Z,37.10
2017-06-28T13:50:25.273Z,37.00
2017-06-28T13:52:53.413Z,36.90
2017-06-28T13:55:22.135Z,36.90
2017-06-28T13:57:51.029Z,36.80
2017-06-28T14:00:19.725Z,36.80
2017-06-28T14:02:47.832Z,36.80
2017-06-28T14:05:16.126Z,36.80
2017-06-28T14:07:45.000Z,36.80
2017-06-28T14:10:13.541Z,36.70
2017-06-28T14:12:43.273Z,36.70
2017-06-28T14:15:11.983Z,36.60
2017-06-28T14:17:40.070Z,36.60
2017-06-28T14:20:08.922Z,36.70
2017-06-28T14:22:37.873Z,36.60
2017-06-28T14:25:06.766Z,36.60
2017-06-28T14:27:35.761Z,36.50
2017-06-28T14:30:04.518Z,36.50
2017-06-28T14:32:33.281Z,36.40
2017-06-28T14:35:01.538Z,36.30
2017-06-28T14:37:30.986Z,36.40
2017-06-28T14:39:59.733Z,36.40
2017-06-28T14:42:29.149Z,36.20
2017-06-28T14:44:57.264Z,36.20
2017-06-28T14:47:26.045Z,36.20
2017-06-28T14:49:54.885Z,36.10
2017-06-28T14:52:24.276Z,36.10
2017-06-28T14:54:53.130Z,36.00
2017-06-28T14:57:22.210Z,36.00
2017-06-28T14:59:50.768Z,35.90
2017-06-28T15:02:20.493Z,35.80
2017-06-28T15:04:49.398Z,35.80
2017-06-28T15:20:23.586Z,35.90
2017-06-28T15:22:51.673Z,35.70
2017-06-28T15:25:20.245Z,35.80
2017-06-28T15:27:48.929Z,35.70
2017-06-28T15:30:17.628Z,35.60
2017-06-28T15:32:46.415Z,35.60
2017-06-28T15:35:15.373Z,35.40
2017-06-28T15:37:44.366Z,35.40
2017-06-28T15:40:12.538Z,35.50
2017-06-28T15:42:40.737Z,35.40
2017-06-28T15:45:10.146Z,35.40
2017-06-28T15:47:39.553Z,35.30
2017-06-28T15:50:08.654Z,35.30
2017-06-28T15:52:37.437Z,35.40
2017-06-28T15:55:06.790Z,35.50
2017-06-28T15:57:35.634Z,35.50
2017-06-28T16:00:04.341Z,35.50
2017-06-28T16:02:33.334Z,35.40
2017-06-28T16:05:01.666Z,35.40
2017-06-28T16:07:30.273Z,35.40
2017-06-28T16:09:59.649Z,35.30
2017-06-28T16:12:28.558Z,35.30
2017-06-28T16:14:58.257Z,35.30
2017-06-28T16:17:26.813Z,35.20
2017-06-28T16:19:55.600Z,35.30
2017-06-28T16:22:24.346Z,35.30
2017-06-28T16:24:53.689Z,35.20
2017-06-28T16:27:22.830Z,35.20
2017-06-28T16:29:51.540Z,35.20
2017-06-28T16:32:19.709Z,35.20
2017-06-28T16:34:48.417Z,35.20
2017-06-28T16:37:17.128Z,35.20
2017-06-28T16:39:45.774Z,35.10
2017-06-28T16:42:14.682Z,35.10
2017-06-28T16:44:43.430Z,35.00
2017-06-28T16:47:11.522Z,35.00
2017-06-28T16:49:40.969Z,34.90
2017-06-28T16:52:09.269Z,34.90
2017-06-28T16:54:38.113Z,35.00
2017-06-28T16:57:06.402Z,34.90
2017-06-28T16:59:35.206Z,34.90
2017-06-28T17:02:03.973Z,34.90
2017-06-28T17:04:32.970Z,34.90
2017-06-28T17:07:01.717Z,34.90
2017-06-28T17:09:30.718Z,34.90
2017-06-28T17:12:00.141Z,34.90
2017-06-28T17:14:28.841Z,34.80
2017-06-28T17:16:57.697Z,34.90
2017-06-28T17:19:26.692Z,34.90
2017-06-28T17:21:55.529Z,34.90
2017-06-28T17:24:24.093Z,34.90
2017-06-28T17:26:52.925Z,34.80
2017-06-28T17:29:21.710Z,34.80
2017-06-28T17:31:50.474Z,34.80
2017-06-28T17:34:19.674Z,34.80
2017-06-28T17:36:48.426Z,34.80
2017-06-28T17:39:17.757Z,34.70
2017-06-28T17:41:46.646Z,34.70
2017-06-28T17:44:15.405Z,34.70
2017-06-28T17:46:44.349Z,34.70
2017-06-28T17:49:13.445Z,34.70
2017-06-28T17:51:42.337Z,34.60
2017-06-28T17:54:11.230Z,34.60
2017-06-28T17:56:40.227Z,34.60
2017-06-28T17:59:09.030Z,34.60
2017-06-28T18:01:37.181Z,34.60
2017-06-28T18:04:05.433Z,34.60
2017-06-28T18:06:35.020Z,34.50
2017-06-28T18:09:04.018Z,34.50
2017-06-28T18:11:32.961Z,34.50
2017-06-28T18:14:01.855Z,34.40
2017-06-28T18:16:30.413Z,34.40
2017-06-28T18:18:59.141Z,34.40
2017-06-28T18:21:27.901Z,34.40
2017-06-28T18:23:56.654Z,34.50
2017-06-28T18:26:25.290Z,34.50
2017-06-28T18:28:53.457Z,34.40
2017-06-28T18:31:22.405Z,34.50
2017-06-28T18:33:51.101Z,34.40
2017-06-28T18:36:19.753Z,34.50
2017-06-28T18:38:48.697Z,34.50
2017-06-28T18:41:18.126Z,34.40
2017-06-28T18:43:46.739Z,34.40
2017-06-28T18:46:15.377Z,34.40
2017-06-28T18:48:45.481Z,34.40
2017-06-28T18:51:15.010Z,34.40
2017-06-28T18:53:43.672Z,34.40
2017-06-28T18:56:13.278Z,34.50
2017-06-28T18:58:42.009Z,34.50
2017-06-28T19:01:10.898Z,34.40
2017-06-28T19:03:39.785Z,34.40
2017-06-28T19:06:08.745Z,34.40
2017-06-28T19:08:36.913Z,34.40
2017-06-28T19:11:05.843Z,34.40
2017-06-28T19:13:34.598Z,34.40
2017-06-28T19:16:03.440Z,34.30
2017-06-28T19:18:31.714Z,34.30
2017-06-28T19:21:00.481Z,34.30
2017-06-28T19:23:28.629Z,34.30
2017-06-28T19:25:57.381Z,34.30
2017-06-28T19:28:26.045Z,34.30
2017-06-28T19:30:54.899Z,34.20
2017-06-28T19:33:23.842Z,34.20
2017-06-28T19:35:52.732Z,34.20
2017-06-28T19:38:21.293Z,34.30
2017-06-28T19:40:50.129Z,34.20
2017-06-28T19:43:18.785Z,34.20
2017-06-28T19:45:47.430Z,34.20
2017-06-28T19:48:15.728Z,34.20
2017-06-28T19:50:45.853Z,34.10
2017-06-28T19:53:15.097Z,34.10
2017-06-28T19:55:44.045Z,34.10
2017-06-28T19:58:12.345Z,34.10
2017-06-28T20:00:40.878Z,34.10
2017-06-28T20:03:09.646Z,34.00
2017-06-28T20:05:38.285Z,34.00
2017-06-28T20:08:07.630Z,34.00
2017-06-28T20:10:36.474Z,33.90
2017-06-28T20:13:05.950Z,33.90
2017-06-28T20:15:34.613Z,33.90
2017-06-28T20:18:03.361Z,33.90
2017-06-28T20:20:32.064Z,33.90
2017-06-28T20:23:00.914Z,33.90
2017-06-28T20:25:30.009Z,33.90
2017-06-28T20:27:58.767Z,33.90
2017-06-28T20:30:27.309Z,33.90
2017-06-28T20:32:56.145Z,33.80
2017-06-28T20:35:24.786Z,33.80
2017-06-28T20:37:53.589Z,33.80
2017-06-28T20:40:22.542Z,33.80
2017-06-28T20:42:51.303Z,33.80
2017-06-28T20:45:19.841Z,33.70
2017-06-28T20:47:49.628Z,33.80
2017-06-28T20:50:19.057Z,33.80
2017-06-28T20:52:48.470Z,33.80
2017-06-28T20:55:17.294Z,33.80
2017-06-28T20:57:45.953Z,33.80
2017-06-28T21:00:14.850Z,33.80
2017-06-28T21:02:43.842Z,33.70
2017-06-28T21:05:12.794Z,33.80
2017-06-28T21:07:42.062Z,33.80
2017-06-28T21:10:10.354Z,33.80
2017-06-28T21:12:39.033Z,33.80
2017-06-28T21:15:07.673Z,33.80
2017-06-28T21:17:36.477Z,33.80
2017-06-28T21:20:05.329Z,33.70
2017-06-28T21:22:33.902Z,33.60
2017-06-28T21:25:02.201Z,33.70
2017-06-28T21:27:31.662Z,33.70
2017-06-28T21:42:55.974Z,33.90
2017-06-28T21:45:24.732Z,33.80
2017-06-28T21:47:53.369Z,33.80
2017-06-28T21:50:23.102Z,33.60
2017-06-28T21:52:51.902Z,33.60
2017-06-28T21:55:20.607Z,33.50
2017-06-28T21:57:49.270Z,33.50
2017-06-28T22:00:17.981Z,33.50
2017-06-28T22:02:46.741Z,33.50
2017-06-28T22:05:14.998Z,33.50
2017-06-28T22:07:44.425Z,33.50
2017-06-28T22:10:12.562Z,33.50
2017-06-28T22:12:41.377Z,33.50
2017-06-28T22:15:10.826Z,33.50
2017-06-28T22:17:39.113Z,33.50
2017-06-28T22:20:08.363Z,33.50
2017-06-28T22:22:37.267Z,33.50
2017-06-28T22:25:06.117Z,33.50
2017-06-28T22:27:35.113Z,33.40
2017-06-28T22:30:03.617Z,33.40
2017-06-28T22:32:31.766Z,33.50
2017-06-28T22:35:00.497Z,33.50
2017-06-28T22:37:29.111Z,33.50
2017-06-28T22:39:57.858Z,33.50
2017-06-28T22:42:26.761Z,33.40
2017-06-28T22:44:55.651Z,33.30
2017-06-28T22:47:24.557Z,33.40
2017-06-28T22:49:53.233Z,33.40
2017-06-28T22:52:21.906Z,33.40
2017-06-28T22:54:51.105Z,33.40
2017-06-28T22:57:20.894Z,33.40
2017-06-28T22:59:49.739Z,33.30
2017-06-28T23:02:18.381Z,33.40
2017-06-28T23:04:48.022Z,33.40
2017-06-28T23:07:16.125Z,33.30
2017-06-28T23:09:44.769Z,33.30
2017-06-28T23:12:13.778Z,33.30
2017-06-28T23:14:42.566Z,33.40
2017-06-28T23:17:11.417Z,33.30
2017-06-28T23:19:39.937Z,33.30
2017-06-28T23:22:08.105Z,33.40
2017-06-28T23:24:36.813Z,33.30
2017-06-28T23:27:05.494Z,33.30
2017-06-28T23:29:34.066Z,33.30
2017-06-28T23:32:02.788Z,33.30
2017-06-28T23:34:31.753Z,33.30
2017-06-28T23:37:00.556Z,33.30
2017-06-28T23:39:29.611Z,33.30
2017-06-28T23:41:57.906Z,33.30
2017-06-28T23:44:26.589Z,33.30
2017-06-28T23:46:55.894Z,33.20
2017-06-28T23:49:25.529Z,33.30
2017-06-28T23:51:53.985Z,33.20
2017-06-28T23:54:23.517Z,33.30
2017-06-28T23:56:52.462Z,33.20
2017-06-28T23:59:21.075Z,33.20
